Terminal Aerodrome Forecast
Issued by NWS Sterling, VA

Home | Current Version | Previous Version | Text Only | Print | Product List | Glossary On
Versions: 1 2 3 4 5 6 7 8 9 10 11 12
000
FTUS41 KLWX 291100
TAFCHO
TAF
KCHO 291136Z 2912/3012 VRB03KT P6SM SCT090
     FM291500 34007KT P6SM SCT090
     FM292300 VRB03KT P6SM SCT050
     FM300700 34004KT P6SM SCT250=

USA.gov is the U.S. government's official web portal to all federal, state and local government web resources and services.